sensor_id;sensor_type;location;lat;lon;timestamp;P1;durP1;ratioP1;P2;durP2;ratioP2
4365;SDS011;2196;47.422;9.656;2022-12-24T00:00:38;0.20;;;0.10;;
4365;SDS011;2196;47.422;9.656;2022-12-24T00:03:05;0.30;;;0.10;;
4365;SDS011;2196;47.422;9.656;2022-12-24T00:05:32;0.07;;;0.00;;
4365;SDS011;2196;47.422;9.656;2022-12-24T00:08:02;0.13;;;0.10;;
4365;SDS011;2196;47.422;9.656;2022-12-24T00:10:30;1.27;;;0.10;;
4365;SDS011;2196;47.422;9.656;2022-12-24T00:12:57;0.13;;;0.10;;
4365;SDS011;2196;47.422;9.656;2022-12-24T00:15:24;0.33;;;0.10;;
4365;SDS011;2196;47.422;9.656;2022-12-24T00:17:52;0.63;;;0.17;;
4365;SDS011;2196;47.422;9.656;2022-12-24T00:20:19;0.10;;;0.10;;
4365;SDS011;2196;47.422;9.656;2022-12-24T00:22:46;0.20;;;0.10;;
4365;SDS011;2196;47.422;9.656;2022-12-24T00:25:13;0.10;;;0.10;;
4365;SDS011;2196;47.422;9.656;2022-12-24T00:27:41;0.10;;;0.10;;
4365;SDS011;2196;47.422;9.656;2022-12-24T00:30:08;1.27;;;0.10;;
4365;SDS011;2196;47.422;9.656;2022-12-24T00:32:36;0.10;;;0.10;;
4365;SDS011;2196;47.422;9.656;2022-12-24T00:35:03;0.10;;;0.10;;
4365;SDS011;2196;47.422;9.656;2022-12-24T00:37:30;0.40;;;0.10;;
4365;SDS011;2196;47.422;9.656;2022-12-24T00:39:57;0.07;;;0.07;;
4365;SDS011;2196;47.422;9.656;2022-12-24T00:42:24;0.00;;;0.00;;
4365;SDS011;2196;47.422;9.656;2022-12-24T00:44:53;0.20;;;0.10;;
4365;SDS011;2196;47.422;9.656;2022-12-24T00:47:20;0.10;;;0.10;;
4365;SDS011;2196;47.422;9.656;2022-12-24T00:49:47;0.10;;;0.10;;
4365;SDS011;2196;47.422;9.656;2022-12-24T00:52:14;0.03;;;0.03;;
4365;SDS011;2196;47.422;9.656;2022-12-24T00:54:41;1.30;;;0.10;;
4365;SDS011;2196;47.422;9.656;2022-12-24T00:57:09;0.10;;;0.10;;
4365;SDS011;2196;47.422;9.656;2022-12-24T00:59:36;0.30;;;0.10;;
4365;SDS011;2196;47.422;9.656;2022-12-24T01:02:04;0.00;;;0.00;;
4365;SDS011;2196;47.422;9.656;2022-12-24T01:04:31;0.10;;;0.10;;
4365;SDS011;2196;47.422;9.656;2022-12-24T01:07:16;0.10;;;0.10;;
4365;SDS011;2196;47.422;9.656;2022-12-24T01:09:43;0.93;;;0.17;;
4365;SDS011;2196;47.422;9.656;2022-12-24T01:12:10;0.10;;;0.10;;
4365;SDS011;2196;47.422;9.656;2022-12-24T01:14:37;0.10;;;0.10;;
4365;SDS011;2196;47.422;9.656;2022-12-24T01:17:05;0.00;;;0.00;;
4365;SDS011;2196;47.422;9.656;2022-12-24T01:19:32;0.23;;;0.23;;
4365;SDS011;2196;47.422;9.656;2022-12-24T01:21:59;0.10;;;0.10;;
4365;SDS011;2196;47.422;9.656;2022-12-24T01:24:26;0.10;;;0.10;;
4365;SDS011;2196;47.422;9.656;2022-12-24T01:26:53;0.10;;;0.10;;
4365;SDS011;2196;47.422;9.656;2022-12-24T01:29:20;0.93;;;0.10;;
4365;SDS011;2196;47.422;9.656;2022-12-24T01:31:47;0.20;;;0.10;;
4365;SDS011;2196;47.422;9.656;2022-12-24T01:34:16;0.00;;;0.00;;
4365;SDS011;2196;47.422;9.656;2022-12-24T01:36:43;0.30;;;0.10;;
4365;SDS011;2196;47.422;9.656;2022-12-24T01:39:10;0.10;;;0.10;;
4365;SDS011;2196;47.422;9.656;2022-12-24T01:41:37;0.30;;;0.10;;
4365;SDS011;2196;47.422;9.656;2022-12-24T01:44:22;0.10;;;0.10;;
4365;SDS011;2196;47.422;9.656;2022-12-24T01:46:55;1.13;;;0.20;;
4365;SDS011;2196;47.422;9.656;2022-12-24T01:49:30;0.67;;;0.10;;
4365;SDS011;2196;47.422;9.656;2022-12-24T01:51:59;0.17;;;0.10;;
4365;SDS011;2196;47.422;9.656;2022-12-24T01:54:28;0.93;;;0.10;;
4365;SDS011;2196;47.422;9.656;2022-12-24T01:56:59;0.37;;;0.37;;
4365;SDS011;2196;47.422;9.656;2022-12-24T01:59:29;1.50;;;0.10;;
4365;SDS011;2196;47.422;9.656;2022-12-24T02:01:58;0.47;;;0.03;;
4365;SDS011;2196;47.422;9.656;2022-12-24T02:04:29;0.20;;;0.20;;
4365;SDS011;2196;47.422;9.656;2022-12-24T02:07:02;0.87;;;0.20;;
4365;SDS011;2196;47.422;9.656;2022-12-24T02:09:29;0.20;;;0.10;;
4365;SDS011;2196;47.422;9.656;2022-12-24T02:11:58;0.10;;;0.10;;
4365;SDS011;2196;47.422;9.656;2022-12-24T02:14:26;0.70;;;0.20;;
4365;SDS011;2196;47.422;9.656;2022-12-24T02:16:58;1.80;;;0.20;;
4365;SDS011;2196;47.422;9.656;2022-12-24T02:19:46;0.20;;;0.20;;
4365;SDS011;2196;47.422;9.656;2022-12-24T02:22:40;0.10;;;0.10;;
4365;SDS011;2196;47.422;9.656;2022-12-24T02:25:24;0.13;;;0.10;;
4365;SDS011;2196;47.422;9.656;2022-12-24T02:28:00;0.13;;;0.10;;
4365;SDS011;2196;47.422;9.656;2022-12-24T02:30:39;1.70;;;0.10;;
4365;SDS011;2196;47.422;9.656;2022-12-24T02:33:11;0.70;;;0.20;;
4365;SDS011;2196;47.422;9.656;2022-12-24T02:35:46;0.10;;;0.10;;
4365;SDS011;2196;47.422;9.656;2022-12-24T02:38:19;1.40;;;0.20;;
4365;SDS011;2196;47.422;9.656;2022-12-24T02:40:51;0.40;;;0.13;;
4365;SDS011;2196;47.422;9.656;2022-12-24T02:43:22;1.03;;;0.10;;
4365;SDS011;2196;47.422;9.656;2022-12-24T02:45:54;0.10;;;0.10;;
4365;SDS011;2196;47.422;9.656;2022-12-24T02:48:23;0.10;;;0.10;;
4365;SDS011;2196;47.422;9.656;2022-12-24T02:50:57;0.00;;;0.00;;
4365;SDS011;2196;47.422;9.656;2022-12-24T02:53:27;0.20;;;0.20;;
4365;SDS011;2196;47.422;9.656;2022-12-24T02:55:58;0.40;;;0.10;;
4365;SDS011;2196;47.422;9.656;2022-12-24T02:58:41;0.00;;;0.00;;
4365;SDS011;2196;47.422;9.656;2022-12-24T03:01:20;3.73;;;0.83;;
4365;SDS011;2196;47.422;9.656;2022-12-24T03:04:01;0.17;;;0.17;;
4365;SDS011;2196;47.422;9.656;2022-12-24T03:06:38;0.70;;;0.10;;
4365;SDS011;2196;47.422;9.656;2022-12-24T03:09:12;0.20;;;0.20;;
4365;SDS011;2196;47.422;9.656;2022-12-24T03:11:53;0.63;;;0.10;;
4365;SDS011;2196;47.422;9.656;2022-12-24T03:14:24;0.10;;;0.10;;
4365;SDS011;2196;47.422;9.656;2022-12-24T03:16:54;0.10;;;0.10;;
4365;SDS011;2196;47.422;9.656;2022-12-24T03:19:25;0.40;;;0.10;;
4365;SDS011;2196;47.422;9.656;2022-12-24T03:21:53;0.10;;;0.10;;
4365;SDS011;2196;47.422;9.656;2022-12-24T03:24:25;0.30;;;0.10;;
4365;SDS011;2196;47.422;9.656;2022-12-24T03:26:53;1.13;;;0.00;;
4365;SDS011;2196;47.422;9.656;2022-12-24T03:29:20;0.10;;;0.10;;
4365;SDS011;2196;47.422;9.656;2022-12-24T03:31:48;0.10;;;0.00;;
4365;SDS011;2196;47.422;9.656;2022-12-24T03:34:21;0.03;;;0.03;;
4365;SDS011;2196;47.422;9.656;2022-12-24T03:36:48;0.00;;;0.00;;
4365;SDS011;2196;47.422;9.656;2022-12-24T03:39:15;0.00;;;0.00;;
4365;SDS011;2196;47.422;9.656;2022-12-24T03:41:42;0.20;;;0.00;;
4365;SDS011;2196;47.422;9.656;2022-12-24T03:44:09;0.27;;;0.00;;
4365;SDS011;2196;47.422;9.656;2022-12-24T03:46:36;0.67;;;0.10;;
4365;SDS011;2196;47.422;9.656;2022-12-24T03:49:03;0.10;;;0.10;;
4365;SDS011;2196;47.422;9.656;2022-12-24T03:51:31;0.00;;;0.00;;
4365;SDS011;2196;47.422;9.656;2022-12-24T03:53:58;0.00;;;0.00;;
4365;SDS011;2196;47.422;9.656;2022-12-24T03:56:25;0.20;;;0.20;;
4365;SDS011;2196;47.422;9.656;2022-12-24T03:58:53;0.73;;;0.10;;
4365;SDS011;2196;47.422;9.656;2022-12-24T04:01:20;0.20;;;0.13;;
4365;SDS011;2196;47.422;9.656;2022-12-24T04:03:47;1.30;;;0.10;;
4365;SDS011;2196;47.422;9.656;2022-12-24T04:06:14;0.93;;;0.10;;
4365;SDS011;2196;47.422;9.656;2022-12-24T04:08:44;0.00;;;0.00;;
4365;SDS011;2196;47.422;9.656;2022-12-24T04:11:12;1.30;;;0.10;;
4365;SDS011;2196;47.422;9.656;2022-12-24T04:13:40;1.03;;;0.00;;
4365;SDS011;2196;47.422;9.656;2022-12-24T04:16:07;0.00;;;0.00;;
4365;SDS011;2196;47.422;9.656;2022-12-24T04:18:37;0.00;;;0.00;;
4365;SDS011;2196;47.422;9.656;2022-12-24T04:21:05;0.47;;;0.00;;
4365;SDS011;2196;47.422;9.656;2022-12-24T04:23:33;0.00;;;0.00;;
4365;SDS011;2196;47.422;9.656;2022-12-24T04:26:03;0.20;;;0.10;;
4365;SDS011;2196;47.422;9.656;2022-12-24T04:28:32;0.00;;;0.00;;
4365;SDS011;2196;47.422;9.656;2022-12-24T04:31:00;0.10;;;0.00;;
4365;SDS011;2196;47.422;9.656;2022-12-24T04:33:28;0.00;;;0.00;;
4365;SDS011;2196;47.422;9.656;2022-12-24T04:35:56;0.00;;;0.00;;
4365;SDS011;2196;47.422;9.656;2022-12-24T04:38:23;0.00;;;0.00;;
4365;SDS011;2196;47.422;9.656;2022-12-24T04:40:56;0.17;;;0.07;;
4365;SDS011;2196;47.422;9.656;2022-12-24T04:43:26;0.00;;;0.00;;
4365;SDS011;2196;47.422;9.656;2022-12-24T04:45:53;0.43;;;0.00;;
4365;SDS011;2196;47.422;9.656;2022-12-24T04:48:20;0.00;;;0.00;;
4365;SDS011;2196;47.422;9.656;2022-12-24T04:50:48;0.10;;;0.10;;
4365;SDS011;2196;47.422;9.656;2022-12-24T04:53:15;0.00;;;0.00;;
4365;SDS011;2196;47.422;9.656;2022-12-24T04:55:44;0.10;;;0.10;;
4365;SDS011;2196;47.422;9.656;2022-12-24T04:58:12;0.00;;;0.00;;
4365;SDS011;2196;47.422;9.656;2022-12-24T05:00:41;0.13;;;0.00;;
4365;SDS011;2196;47.422;9.656;2022-12-24T05:03:08;0.00;;;0.00;;
4365;SDS011;2196;47.422;9.656;2022-12-24T05:05:35;0.00;;;0.00;;
4365;SDS011;2196;47.422;9.656;2022-12-24T05:08:02;0.00;;;0.00;;
4365;SDS011;2196;47.422;9.656;2022-12-24T05:10:29;0.40;;;0.00;;
4365;SDS011;2196;47.422;9.656;2022-12-24T05:12:56;0.63;;;0.00;;
4365;SDS011;2196;47.422;9.656;2022-12-24T05:15:23;0.67;;;0.00;;
4365;SDS011;2196;47.422;9.656;2022-12-24T05:17:51;1.40;;;0.03;;
4365;SDS011;2196;47.422;9.656;2022-12-24T05:20:18;0.00;;;0.00;;
4365;SDS011;2196;47.422;9.656;2022-12-24T05:22:45;0.07;;;0.00;;
4365;SDS011;2196;47.422;9.656;2022-12-24T05:25:31;0.30;;;0.20;;
4365;SDS011;2196;47.422;9.656;2022-12-24T05:28:19;0.00;;;0.00;;
4365;SDS011;2196;47.422;9.656;2022-12-24T05:30:46;0.00;;;0.00;;
4365;SDS011;2196;47.422;9.656;2022-12-24T05:33:14;0.00;;;0.00;;
4365;SDS011;2196;47.422;9.656;2022-12-24T05:35:41;0.80;;;0.00;;
4365;SDS011;2196;47.422;9.656;2022-12-24T05:38:08;1.33;;;0.10;;
4365;SDS011;2196;47.422;9.656;2022-12-24T05:40:35;0.37;;;0.37;;
4365;SDS011;2196;47.422;9.656;2022-12-24T05:43:02;0.20;;;0.10;;
4365;SDS011;2196;47.422;9.656;2022-12-24T05:45:29;0.67;;;0.20;;
4365;SDS011;2196;47.422;9.656;2022-12-24T05:47:56;1.60;;;1.23;;
4365;SDS011;2196;47.422;9.656;2022-12-24T05:50:24;0.20;;;0.20;;
4365;SDS011;2196;47.422;9.656;2022-12-24T05:52:51;0.17;;;0.17;;
4365;SDS011;2196;47.422;9.656;2022-12-24T05:55:18;2.33;;;2.17;;
4365;SDS011;2196;47.422;9.656;2022-12-24T05:57:45;1.37;;;0.77;;
4365;SDS011;2196;47.422;9.656;2022-12-24T06:00:12;1.03;;;0.50;;
4365;SDS011;2196;47.422;9.656;2022-12-24T06:02:40;0.80;;;0.80;;
4365;SDS011;2196;47.422;9.656;2022-12-24T06:05:07;52.00;;;23.87;;
4365;SDS011;2196;47.422;9.656;2022-12-24T06:07:36;47.03;;;22.20;;
4365;SDS011;2196;47.422;9.656;2022-12-24T06:10:03;1.03;;;1.03;;
4365;SDS011;2196;47.422;9.656;2022-12-24T06:12:31;0.93;;;0.33;;
4365;SDS011;2196;47.422;9.656;2022-12-24T06:14:58;0.30;;;0.30;;
4365;SDS011;2196;47.422;9.656;2022-12-24T06:17:25;0.23;;;0.23;;
4365;SDS011;2196;47.422;9.656;2022-12-24T06:19:52;1.03;;;0.33;;
4365;SDS011;2196;47.422;9.656;2022-12-24T06:22:19;0.20;;;0.20;;
4365;SDS011;2196;47.422;9.656;2022-12-24T06:24:48;0.50;;;0.50;;
4365;SDS011;2196;47.422;9.656;2022-12-24T06:27:15;1.67;;;0.63;;
4365;SDS011;2196;47.422;9.656;2022-12-24T06:29:42;0.87;;;0.87;;
4365;SDS011;2196;47.422;9.656;2022-12-24T06:32:09;1.33;;;1.30;;
4365;SDS011;2196;47.422;9.656;2022-12-24T06:34:36;1.90;;;1.47;;
4365;SDS011;2196;47.422;9.656;2022-12-24T06:37:03;0.57;;;0.57;;
4365;SDS011;2196;47.422;9.656;2022-12-24T06:39:30;0.83;;;0.83;;
4365;SDS011;2196;47.422;9.656;2022-12-24T06:41:58;0.60;;;0.60;;
4365;SDS011;2196;47.422;9.656;2022-12-24T06:44:25;1.70;;;1.23;;
4365;SDS011;2196;47.422;9.656;2022-12-24T06:46:52;0.73;;;0.63;;
4365;SDS011;2196;47.422;9.656;2022-12-24T06:49:23;1.00;;;1.00;;
4365;SDS011;2196;47.422;9.656;2022-12-24T06:51:50;1.10;;;1.10;;
4365;SDS011;2196;47.422;9.656;2022-12-24T06:54:17;1.73;;;0.80;;
4365;SDS011;2196;47.422;9.656;2022-12-24T06:56:45;0.83;;;0.83;;
4365;SDS011;2196;47.422;9.656;2022-12-24T06:59:13;1.80;;;1.70;;
4365;SDS011;2196;47.422;9.656;2022-12-24T07:01:40;1.33;;;1.33;;
4365;SDS011;2196;47.422;9.656;2022-12-24T07:04:07;1.60;;;1.37;;
4365;SDS011;2196;47.422;9.656;2022-12-24T07:06:34;1.90;;;1.03;;
4365;SDS011;2196;47.422;9.656;2022-12-24T07:09:02;0.80;;;0.80;;
4365;SDS011;2196;47.422;9.656;2022-12-24T07:11:29;0.70;;;0.70;;
4365;SDS011;2196;47.422;9.656;2022-12-24T07:13:56;1.47;;;1.37;;
4365;SDS011;2196;47.422;9.656;2022-12-24T07:16:24;3.07;;;2.53;;
4365;SDS011;2196;47.422;9.656;2022-12-24T07:18:51;4.60;;;2.50;;
4365;SDS011;2196;47.422;9.656;2022-12-24T07:21:18;3.20;;;2.90;;
4365;SDS011;2196;47.422;9.656;2022-12-24T07:23:45;1.73;;;1.63;;
4365;SDS011;2196;47.422;9.656;2022-12-24T07:26:12;1.50;;;1.20;;
4365;SDS011;2196;47.422;9.656;2022-12-24T07:28:39;2.43;;;1.50;;
4365;SDS011;2196;47.422;9.656;2022-12-24T07:31:06;2.63;;;2.03;;
4365;SDS011;2196;47.422;9.656;2022-12-24T07:33:34;2.40;;;2.17;;
4365;SDS011;2196;47.422;9.656;2022-12-24T07:36:02;2.13;;;1.70;;
4365;SDS011;2196;47.422;9.656;2022-12-24T07:38:31;0.40;;;0.40;;
4365;SDS011;2196;47.422;9.656;2022-12-24T07:40:59;0.73;;;0.50;;
4365;SDS011;2196;47.422;9.656;2022-12-24T07:43:26;0.80;;;0.80;;
4365;SDS011;2196;47.422;9.656;2022-12-24T07:45:54;0.30;;;0.30;;
4365;SDS011;2196;47.422;9.656;2022-12-24T07:48:21;0.80;;;0.70;;
4365;SDS011;2196;47.422;9.656;2022-12-24T07:50:50;2.23;;;0.60;;
4365;SDS011;2196;47.422;9.656;2022-12-24T07:53:18;0.80;;;0.60;;
4365;SDS011;2196;47.422;9.656;2022-12-24T07:55:45;0.50;;;0.40;;
4365;SDS011;2196;47.422;9.656;2022-12-24T07:58:12;1.37;;;0.60;;
4365;SDS011;2196;47.422;9.656;2022-12-24T08:00:39;2.07;;;1.53;;
4365;SDS011;2196;47.422;9.656;2022-12-24T08:03:08;1.50;;;0.40;;
4365;SDS011;2196;47.422;9.656;2022-12-24T08:05:41;1.37;;;0.63;;
4365;SDS011;2196;47.422;9.656;2022-12-24T08:08:10;8.27;;;7.67;;
4365;SDS011;2196;47.422;9.656;2022-12-24T08:10:37;27.93;;;25.73;;
4365;SDS011;2196;47.422;9.656;2022-12-24T08:13:04;22.10;;;20.33;;
4365;SDS011;2196;47.422;9.656;2022-12-24T08:15:31;5.57;;;5.27;;
4365;SDS011;2196;47.422;9.656;2022-12-24T08:17:59;4.13;;;3.93;;
4365;SDS011;2196;47.422;9.656;2022-12-24T08:20:26;8.63;;;8.20;;
4365;SDS011;2196;47.422;9.656;2022-12-24T08:22:53;8.10;;;6.37;;
4365;SDS011;2196;47.422;9.656;2022-12-24T08:25:21;1.93;;;1.30;;
4365;SDS011;2196;47.422;9.656;2022-12-24T08:27:48;3.10;;;2.90;;
4365;SDS011;2196;47.422;9.656;2022-12-24T08:30:22;2.47;;;2.23;;
4365;SDS011;2196;47.422;9.656;2022-12-24T08:32:49;1.73;;;1.57;;
4365;SDS011;2196;47.422;9.656;2022-12-24T08:35:16;1.60;;;1.50;;
4365;SDS011;2196;47.422;9.656;2022-12-24T08:37:43;1.47;;;1.47;;
4365;SDS011;2196;47.422;9.656;2022-12-24T08:40:10;1.43;;;1.00;;
4365;SDS011;2196;47.422;9.656;2022-12-24T08:42:39;2.70;;;1.30;;
4365;SDS011;2196;47.422;9.656;2022-12-24T08:45:06;2.30;;;1.33;;
4365;SDS011;2196;47.422;9.656;2022-12-24T08:47:35;2.00;;;1.87;;
4365;SDS011;2196;47.422;9.656;2022-12-24T08:50:02;2.10;;;1.10;;
4365;SDS011;2196;47.422;9.656;2022-12-24T08:52:30;2.20;;;0.60;;
4365;SDS011;2196;47.422;9.656;2022-12-24T08:54:57;1.67;;;0.90;;
4365;SDS011;2196;47.422;9.656;2022-12-24T08:57:24;1.97;;;1.23;;
4365;SDS011;2196;47.422;9.656;2022-12-24T08:59:53;1.50;;;1.00;;
4365;SDS011;2196;47.422;9.656;2022-12-24T09:02:20;2.20;;;1.00;;
4365;SDS011;2196;47.422;9.656;2022-12-24T09:04:47;1.90;;;1.27;;
4365;SDS011;2196;47.422;9.656;2022-12-24T09:07:14;0.80;;;0.80;;
4365;SDS011;2196;47.422;9.656;2022-12-24T09:09:41;1.23;;;0.90;;
4365;SDS011;2196;47.422;9.656;2022-12-24T09:12:08;0.50;;;0.50;;
4365;SDS011;2196;47.422;9.656;2022-12-24T09:14:35;0.80;;;0.80;;
4365;SDS011;2196;47.422;9.656;2022-12-24T09:17:03;0.50;;;0.50;;
4365;SDS011;2196;47.422;9.656;2022-12-24T09:19:30;1.70;;;0.93;;
4365;SDS011;2196;47.422;9.656;2022-12-24T09:21:58;1.40;;;0.60;;
4365;SDS011;2196;47.422;9.656;2022-12-24T09:24:25;1.63;;;1.20;;
4365;SDS011;2196;47.422;9.656;2022-12-24T09:26:53;1.37;;;0.77;;
4365;SDS011;2196;47.422;9.656;2022-12-24T09:29:20;0.30;;;0.30;;
4365;SDS011;2196;47.422;9.656;2022-12-24T09:31:47;0.73;;;0.40;;
4365;SDS011;2196;47.422;9.656;2022-12-24T09:34:16;0.50;;;0.50;;
4365;SDS011;2196;47.422;9.656;2022-12-24T09:36:43;0.53;;;0.40;;
4365;SDS011;2196;47.422;9.656;2022-12-24T09:39:10;0.50;;;0.50;;
4365;SDS011;2196;47.422;9.656;2022-12-24T09:41:41;0.40;;;0.40;;
4365;SDS011;2196;47.422;9.656;2022-12-24T09:44:19;1.53;;;0.20;;
4365;SDS011;2196;47.422;9.656;2022-12-24T09:46:54;0.30;;;0.20;;
4365;SDS011;2196;47.422;9.656;2022-12-24T09:49:28;0.40;;;0.20;;
4365;SDS011;2196;47.422;9.656;2022-12-24T09:52:04;0.50;;;0.50;;
4365;SDS011;2196;47.422;9.656;2022-12-24T09:54:35;0.63;;;0.63;;
4365;SDS011;2196;47.422;9.656;2022-12-24T09:57:11;1.43;;;0.20;;
4365;SDS011;2196;47.422;9.656;2022-12-24T09:59:43;0.60;;;0.60;;
4365;SDS011;2196;47.422;9.656;2022-12-24T10:02:13;1.53;;;0.53;;
4365;SDS011;2196;47.422;9.656;2022-12-24T10:04:43;0.73;;;0.73;;
4365;SDS011;2196;47.422;9.656;2022-12-24T10:07:16;1.60;;;0.63;;
4365;SDS011;2196;47.422;9.656;2022-12-24T10:09:56;1.97;;;1.20;;
4365;SDS011;2196;47.422;9.656;2022-12-24T10:12:33;1.33;;;1.00;;
4365;SDS011;2196;47.422;9.656;2022-12-24T10:15:08;1.60;;;1.50;;
4365;SDS011;2196;47.422;9.656;2022-12-24T10:17:45;4.50;;;3.07;;
4365;SDS011;2196;47.422;9.656;2022-12-24T10:20:27;1.27;;;1.17;;
4365;SDS011;2196;47.422;9.656;2022-12-24T10:23:02;0.83;;;0.83;;
4365;SDS011;2196;47.422;9.656;2022-12-24T10:25:37;1.10;;;1.00;;
4365;SDS011;2196;47.422;9.656;2022-12-24T10:28:13;2.77;;;1.63;;
4365;SDS011;2196;47.422;9.656;2022-12-24T10:30:42;1.53;;;1.43;;
4365;SDS011;2196;47.422;9.656;2022-12-24T10:33:13;1.23;;;1.13;;
4365;SDS011;2196;47.422;9.656;2022-12-24T10:35:47;1.20;;;1.10;;
4365;SDS011;2196;47.422;9.656;2022-12-24T10:38:19;0.60;;;0.60;;
4365;SDS011;2196;47.422;9.656;2022-12-24T10:40:46;0.80;;;0.80;;
4365;SDS011;2196;47.422;9.656;2022-12-24T10:43:16;1.33;;;1.23;;
4365;SDS011;2196;47.422;9.656;2022-12-24T10:45:45;0.90;;;0.90;;
4365;SDS011;2196;47.422;9.656;2022-12-24T10:48:16;1.37;;;1.27;;
4365;SDS011;2196;47.422;9.656;2022-12-24T10:50:53;0.50;;;0.50;;
4365;SDS011;2196;47.422;9.656;2022-12-24T10:53:30;0.40;;;0.40;;
4365;SDS011;2196;47.422;9.656;2022-12-24T10:56:06;0.53;;;0.40;;
4365;SDS011;2196;47.422;9.656;2022-12-24T10:58:35;0.60;;;0.60;;
4365;SDS011;2196;47.422;9.656;2022-12-24T11:01:02;0.90;;;0.90;;
4365;SDS011;2196;47.422;9.656;2022-12-24T11:03:30;0.80;;;0.80;;
4365;SDS011;2196;47.422;9.656;2022-12-24T11:06:01;1.70;;;1.20;;
4365;SDS011;2196;47.422;9.656;2022-12-24T11:08:37;2.23;;;2.00;;
4365;SDS011;2196;47.422;9.656;2022-12-24T11:11:06;1.60;;;1.50;;
4365;SDS011;2196;47.422;9.656;2022-12-24T11:13:35;1.67;;;1.60;;
4365;SDS011;2196;47.422;9.656;2022-12-24T11:16:06;5.33;;;2.80;;
4365;SDS011;2196;47.422;9.656;2022-12-24T11:18:45;2.80;;;2.23;;
4365;SDS011;2196;47.422;9.656;2022-12-24T11:21:19;1.90;;;1.80;;
4365;SDS011;2196;47.422;9.656;2022-12-24T11:23:51;2.73;;;2.53;;
4365;SDS011;2196;47.422;9.656;2022-12-24T11:26:21;2.40;;;2.17;;
4365;SDS011;2196;47.422;9.656;2022-12-24T11:29:02;1.87;;;1.77;;
4365;SDS011;2196;47.422;9.656;2022-12-24T11:31:40;2.03;;;1.83;;
4365;SDS011;2196;47.422;9.656;2022-12-24T11:34:20;3.10;;;1.50;;
4365;SDS011;2196;47.422;9.656;2022-12-24T11:36:51;2.27;;;1.43;;
4365;SDS011;2196;47.422;9.656;2022-12-24T11:39:23;2.10;;;2.00;;
4365;SDS011;2196;47.422;9.656;2022-12-24T11:41:53;3.10;;;2.77;;
4365;SDS011;2196;47.422;9.656;2022-12-24T11:44:22;4.00;;;3.20;;
4365;SDS011;2196;47.422;9.656;2022-12-24T11:46:52;5.17;;;3.53;;
4365;SDS011;2196;47.422;9.656;2022-12-24T11:49:23;7.63;;;5.23;;
4365;SDS011;2196;47.422;9.656;2022-12-24T11:52:09;5.33;;;4.90;;
4365;SDS011;2196;47.422;9.656;2022-12-24T11:54:56;7.00;;;6.40;;
4365;SDS011;2196;47.422;9.656;2022-12-24T11:57:40;11.00;;;9.93;;
4365;SDS011;2196;47.422;9.656;2022-12-24T12:00:13;8.57;;;7.77;;
4365;SDS011;2196;47.422;9.656;2022-12-24T12:02:41;7.73;;;6.20;;
4365;SDS011;2196;47.422;9.656;2022-12-24T12:05:12;6.00;;;4.80;;
4365;SDS011;2196;47.422;9.656;2022-12-24T12:07:45;4.43;;;4.13;;
4365;SDS011;2196;47.422;9.656;2022-12-24T12:10:16;4.83;;;4.20;;
4365;SDS011;2196;47.422;9.656;2022-12-24T12:12:48;5.47;;;5.17;;
4365;SDS011;2196;47.422;9.656;2022-12-24T12:15:22;4.80;;;4.37;;
4365;SDS011;2196;47.422;9.656;2022-12-24T12:17:52;5.53;;;5.03;;
4365;SDS011;2196;47.422;9.656;2022-12-24T12:20:22;5.07;;;4.27;;
4365;SDS011;2196;47.422;9.656;2022-12-24T12:22:54;4.43;;;4.13;;
4365;SDS011;2196;47.422;9.656;2022-12-24T12:25:26;2.83;;;2.67;;
4365;SDS011;2196;47.422;9.656;2022-12-24T12:27:59;3.63;;;3.43;;
4365;SDS011;2196;47.422;9.656;2022-12-24T12:30:31;2.60;;;2.40;;
4365;SDS011;2196;47.422;9.656;2022-12-24T12:33:03;3.37;;;2.50;;
4365;SDS011;2196;47.422;9.656;2022-12-24T12:35:40;2.07;;;1.97;;
4365;SDS011;2196;47.422;9.656;2022-12-24T12:38:11;2.07;;;1.97;;
4365;SDS011;2196;47.422;9.656;2022-12-24T12:40:45;1.97;;;1.87;;
4365;SDS011;2196;47.422;9.656;2022-12-24T12:43:28;4.97;;;1.70;;
4365;SDS011;2196;47.422;9.656;2022-12-24T12:46:07;1.30;;;1.20;;
4365;SDS011;2196;47.422;9.656;2022-12-24T12:48:50;1.87;;;1.40;;
4365;SDS011;2196;47.422;9.656;2022-12-24T12:51:31;2.33;;;2.13;;
4365;SDS011;2196;47.422;9.656;2022-12-24T12:54:14;2.30;;;2.20;;
4365;SDS011;2196;47.422;9.656;2022-12-24T12:56:52;2.93;;;2.27;;
4365;SDS011;2196;47.422;9.656;2022-12-24T12:59:29;2.37;;;2.27;;
4365;SDS011;2196;47.422;9.656;2022-12-24T13:02:02;1.73;;;1.63;;
4365;SDS011;2196;47.422;9.656;2022-12-24T13:05:00;1.63;;;1.63;;
4365;SDS011;2196;47.422;9.656;2022-12-24T13:07:55;4.20;;;3.87;;
4365;SDS011;2196;47.422;9.656;2022-12-24T13:10:44;4.77;;;4.27;;
4365;SDS011;2196;47.422;9.656;2022-12-24T13:13:24;3.50;;;3.40;;
4365;SDS011;2196;47.422;9.656;2022-12-24T13:16:22;3.47;;;3.33;;
4365;SDS011;2196;47.422;9.656;2022-12-24T13:19:11;4.63;;;4.33;;
4365;SDS011;2196;47.422;9.656;2022-12-24T13:21:50;3.83;;;3.63;;
4365;SDS011;2196;47.422;9.656;2022-12-24T13:24:22;3.90;;;3.37;;
4365;SDS011;2196;47.422;9.656;2022-12-24T13:27:03;4.50;;;4.10;;
4365;SDS011;2196;47.422;9.656;2022-12-24T13:29:42;3.37;;;3.07;;
4365;SDS011;2196;47.422;9.656;2022-12-24T13:38:38;5.43;;;3.17;;
4365;SDS011;2196;47.422;9.656;2022-12-24T13:44:29;2.77;;;2.57;;
4365;SDS011;2196;47.422;9.656;2022-12-24T13:47:15;3.03;;;2.60;;
4365;SDS011;2196;47.422;9.656;2022-12-24T13:49:47;2.20;;;2.10;;
4365;SDS011;2196;47.422;9.656;2022-12-24T13:52:18;2.50;;;1.70;;
4365;SDS011;2196;47.422;9.656;2022-12-24T13:54:58;2.43;;;2.23;;
4365;SDS011;2196;47.422;9.656;2022-12-24T13:57:41;2.97;;;2.70;;
4365;SDS011;2196;47.422;9.656;2022-12-24T14:00:24;2.83;;;2.73;;
4365;SDS011;2196;47.422;9.656;2022-12-24T14:03:03;2.20;;;2.10;;
4365;SDS011;2196;47.422;9.656;2022-12-24T14:05:43;2.10;;;2.10;;
4365;SDS011;2196;47.422;9.656;2022-12-24T14:08:14;3.30;;;2.57;;
4365;SDS011;2196;47.422;9.656;2022-12-24T14:10:55;2.20;;;2.10;;
4365;SDS011;2196;47.422;9.656;2022-12-24T14:13:54;2.50;;;2.40;;
4365;SDS011;2196;47.422;9.656;2022-12-24T14:16:44;3.13;;;1.97;;
4365;SDS011;2196;47.422;9.656;2022-12-24T14:19:19;1.20;;;1.10;;
4365;SDS011;2196;47.422;9.656;2022-12-24T14:21:58;1.80;;;0.87;;
4365;SDS011;2196;47.422;9.656;2022-12-24T14:24:30;0.93;;;0.93;;
4365;SDS011;2196;47.422;9.656;2022-12-24T14:27:05;2.00;;;1.43;;
4365;SDS011;2196;47.422;9.656;2022-12-24T14:29:40;2.57;;;1.40;;
4365;SDS011;2196;47.422;9.656;2022-12-24T14:32:16;2.77;;;2.67;;
4365;SDS011;2196;47.422;9.656;2022-12-24T14:34:43;2.05;;;1.92;;
4365;SDS011;2196;47.422;9.656;2022-12-24T14:37:11;2.60;;;2.40;;
4365;SDS011;2196;47.422;9.656;2022-12-24T14:39:40;4.87;;;3.93;;
4365;SDS011;2196;47.422;9.656;2022-12-24T14:42:16;4.70;;;3.83;;
4365;SDS011;2196;47.422;9.656;2022-12-24T14:44:59;5.57;;;5.13;;
4365;SDS011;2196;47.422;9.656;2022-12-24T14:47:36;5.00;;;4.57;;
4365;SDS011;2196;47.422;9.656;2022-12-24T14:53:02;4.97;;;3.60;;
4365;SDS011;2196;47.422;9.656;2022-12-24T14:55:44;4.00;;;3.70;;
4365;SDS011;2196;47.422;9.656;2022-12-24T14:58:15;3.70;;;3.40;;
4365;SDS011;2196;47.422;9.656;2022-12-24T15:00:50;3.30;;;2.63;;
4365;SDS011;2196;47.422;9.656;2022-12-24T15:03:20;2.50;;;2.30;;
4365;SDS011;2196;47.422;9.656;2022-12-24T15:05:50;2.60;;;2.50;;
4365;SDS011;2196;47.422;9.656;2022-12-24T15:08:21;2.10;;;2.00;;
4365;SDS011;2196;47.422;9.656;2022-12-24T15:10:52;1.60;;;1.50;;
4365;SDS011;2196;47.422;9.656;2022-12-24T15:13:22;1.30;;;1.20;;
4365;SDS011;2196;47.422;9.656;2022-12-24T15:15:54;1.30;;;1.10;;
4365;SDS011;2196;47.422;9.656;2022-12-24T15:18:24;1.43;;;1.23;;
4365;SDS011;2196;47.422;9.656;2022-12-24T15:20:55;1.27;;;1.23;;
4365;SDS011;2196;47.422;9.656;2022-12-24T15:23:26;2.10;;;1.30;;
4365;SDS011;2196;47.422;9.656;2022-12-24T15:26:07;2.00;;;1.90;;
4365;SDS011;2196;47.422;9.656;2022-12-24T15:28:40;3.07;;;1.83;;
4365;SDS011;2196;47.422;9.656;2022-12-24T15:31:10;3.87;;;2.80;;
4365;SDS011;2196;47.422;9.656;2022-12-24T15:33:40;3.60;;;3.40;;
4365;SDS011;2196;47.422;9.656;2022-12-24T15:36:11;5.60;;;3.60;;
4365;SDS011;2196;47.422;9.656;2022-12-24T15:38:39;4.03;;;3.67;;
4365;SDS011;2196;47.422;9.656;2022-12-24T15:41:15;3.23;;;3.03;;
4365;SDS011;2196;47.422;9.656;2022-12-24T15:43:46;2.97;;;2.77;;
4365;SDS011;2196;47.422;9.656;2022-12-24T15:46:18;3.03;;;2.83;;
4365;SDS011;2196;47.422;9.656;2022-12-24T15:48:48;2.73;;;2.60;;
4365;SDS011;2196;47.422;9.656;2022-12-24T15:51:22;2.17;;;2.07;;